Time;durP1;ratioP1;P1;durP2;ratioP2;P2;SDS_P1;SDS_P2;PMS_P1;PMS_P2;Temp;Humidity;BMP_temperature;BMP_pressure;BME280_temperature;BME280_humidity;BME280_pressure;Samples;Min_cycle;Max_cycle;Signal;HPM_P1;HPM_P2
2020/12/09 00:00:00;;;;;;;12.20;9.10;;;5.60;99.90;;;;;;5093243;28;20164;-68
2020/12/09 00:02:25;;;;;;;13.43;9.13;;;5.80;99.90;;;;;;5092898;28;20607;-68
2020/12/09 00:04:51;;;;;;;12.57;10.00;;;5.90;99.90;;;;;;5092824;28;20706;-68
2020/12/09 00:07:16;;;;;;;12.10;8.77;;;5.80;99.90;;;;;;5092842;28;20171;-68
2020/12/09 00:09:42;;;;;;;12.33;9.47;;;5.70;99.90;;;;;;5092880;28;20687;-68
2020/12/09 00:12:07;;;;;;;17.40;8.73;;;5.60;99.90;;;;;;5092745;28;20710;-68
2020/12/09 00:14:33;;;;;;;10.73;9.20;;;5.40;99.90;;;;;;5092810;28;20254;-68
2020/12/09 00:16:58;;;;;;;14.30;9.50;;;5.30;1.00;;;;;;5092734;28;20195;-68
2020/12/09 00:19:24;;;;;;;12.70;9.87;;;5.50;1.00;;;;;;5093057;28;20545;-68
2020/12/09 00:21:49;;;;;;;13.00;9.97;;;5.70;99.90;;;;;;5091323;28;20728;-68
2020/12/09 00:24:15;;;;;;;14.33;9.97;;;5.70;99.90;;;;;;5093282;28;20178;-68
2020/12/09 00:26:40;;;;;;;19.90;11.10;;;5.60;99.90;;;;;;5092944;28;20172;-68
2020/12/09 00:29:07;;;;;;;13.80;11.27;;;5.70;99.90;;;;;;5094400;28;20229;-67
2020/12/09 00:31:33;;;;;;;15.02;10.98;;;5.70;99.90;;;;;;5096675;28;20195;-68
2020/12/09 00:34:00;;;;;;;13.60;10.15;;;5.50;99.90;;;;;;5096821;28;20159;-68
2020/12/09 00:36:26;;;;;;;12.20;9.30;;;5.60;99.90;;;;;;5096675;28;20179;-68
2020/12/09 00:38:53;;;;;;;15.57;9.23;;;5.80;99.90;;;;;;5096359;28;20199;-68
2020/12/09 00:41:21;;;;;;;15.60;10.73;;;5.80;99.90;;;;;;5096542;28;20195;-67
2020/12/09 00:43:47;;;;;;;13.50;10.52;;;5.80;99.90;;;;;;5096468;28;20175;-67
2020/12/09 00:46:21;;;;;;;14.40;10.38;;;5.80;99.90;;;;;;5096505;28;20175;-68
2020/12/09 00:48:47;;;;;;;11.80;9.75;;;5.70;99.90;;;;;;5096271;28;20166;-67
2020/12/09 00:51:18;;;;;;;14.00;9.68;;;5.80;99.90;;;;;;5096085;28;20252;-67
2020/12/09 00:53:44;;;;;;;13.05;9.98;;;5.70;99.90;;;;;;5096695;28;20188;-67
2020/12/09 00:56:10;;;;;;;14.02;9.93;;;5.80;99.90;;;;;;5096150;28;20516;-67
2020/12/09 00:58:36;;;;;;;13.25;9.60;;;5.50;99.90;;;;;;5096263;28;20206;-68
2020/12/09 01:01:04;;;;;;;16.57;11.40;;;5.60;99.90;;;;;;5096177;28;20190;-67
2020/12/09 01:03:30;;;;;;;10.77;9.35;;;5.60;99.90;;;;;;5096217;28;20164;-67
2020/12/09 01:05:56;;;;;;;11.77;8.88;;;5.50;99.90;;;;;;5095781;28;20171;-67
2020/12/09 01:08:22;;;;;;;13.97;10.77;;;5.80;99.90;;;;;;5095862;28;20179;-67
2020/12/09 01:10:47;;;;;;;15.33;10.73;;;5.90;99.90;;;;;;5095571;28;20229;-67
2020/12/09 01:13:15;;;;;;;14.50;11.50;;;5.70;99.90;;;;;;5096116;28;20170;-67
2020/12/09 01:15:40;;;;;;;14.93;11.50;;;5.70;99.90;;;;;;5095611;28;20262;-68
2020/12/09 01:18:06;;;;;;;23.40;11.87;;;5.80;99.90;;;;;;5096359;28;20286;-67
2020/12/09 01:20:32;;;;;;;16.67;11.73;;;5.70;99.90;;;;;;5095802;28;20767;-68
2020/12/09 01:22:57;;;;;;;16.53;11.43;;;5.70;99.90;;;;;;5095643;28;20168;-67
2020/12/09 01:25:23;;;;;;;13.23;9.57;;;5.70;99.90;;;;;;5095606;28;20318;-68
2020/12/09 01:27:48;;;;;;;17.50;12.70;;;5.80;99.90;;;;;;5095928;28;20172;-67
2020/12/09 01:30:14;;;;;;;13.77;11.37;;;5.70;99.90;;;;;;5096372;28;20175;-67
2020/12/09 01:32:39;;;;;;;16.57;10.80;;;5.80;99.90;;;;;;5095487;28;20252;-69
2020/12/09 01:35:05;;;;;;;18.90;11.67;;;5.50;99.90;;;;;;5095268;28;20398;-67
2020/12/09 01:37:31;;;;;;;17.40;12.30;;;5.50;99.90;;;;;;5095217;28;20191;-67
2020/12/09 01:39:57;;;;;;;16.07;11.97;;;5.80;99.90;;;;;;5110266;28;20175;-68
2020/12/09 01:42:22;;;;;;;16.25;11.40;;;5.80;99.90;;;;;;5095006;28;20183;-67
2020/12/09 01:44:48;;;;;;;19.70;12.40;;;5.80;99.90;;;;;;5095303;28;20164;-67
2020/12/09 01:47:14;;;;;;;21.97;14.10;;;5.80;99.90;;;;;;5095477;28;20635;-67
2020/12/09 01:49:39;;;;;;;16.53;12.50;;;5.70;99.90;;;;;;5095597;28;20203;-67
2020/12/09 01:52:05;;;;;;;17.80;12.70;;;5.60;99.90;;;;;;5095334;28;20438;-68
2020/12/09 01:54:31;;;;;;;18.17;13.13;;;5.70;99.90;;;;;;5095247;28;20398;-68
2020/12/09 01:57:02;;;;;;;22.15;14.25;;;5.50;99.90;;;;;;5094828;28;20191;-67
2020/12/09 01:59:28;;;;;;;18.80;14.07;;;5.30;99.90;;;;;;5095187;28;20214;-67
2020/12/09 02:01:54;;;;;;;24.57;13.77;;;5.20;99.90;;;;;;5094725;28;20211;-68
2020/12/09 02:04:19;;;;;;;20.40;16.50;;;5.20;99.90;;;;;;5094680;28;20216;-67
2020/12/09 02:06:45;;;;;;;20.63;14.40;;;5.10;99.90;;;;;;5095248;28;20172;-67
2020/12/09 02:09:11;;;;;;;21.00;15.17;;;5.20;1.00;;;;;;5094712;28;20170;-68
2020/12/09 02:11:36;;;;;;;27.13;15.50;;;5.20;1.00;;;;;;5094452;28;20239;-68
2020/12/09 02:14:02;;;;;;;19.77;14.10;;;5.30;1.00;;;;;;5094595;28;20164;-67
2020/12/09 02:16:27;;;;;;;24.87;15.07;;;5.30;99.90;;;;;;5094502;28;20198;-67
2020/12/09 02:18:53;;;;;;;24.70;15.07;;;5.20;1.00;;;;;;5094397;28;20199;-67
2020/12/09 02:21:21;;;;;;;19.77;14.17;;;5.10;1.00;;;;;;5094707;28;20223;-67
2020/12/09 02:23:47;;;;;;;20.80;13.45;;;5.00;1.00;;;;;;5094475;28;20175;-68
2020/12/09 02:26:12;;;;;;;19.93;13.20;;;5.00;1.00;;;;;;5094354;28;20245;-67
2020/12/09 02:28:38;;;;;;;23.30;14.13;;;5.00;1.00;;;;;;5094531;28;20167;-68
2020/12/09 02:31:03;;;;;;;20.93;13.90;;;5.00;1.00;;;;;;5094153;28;20194;-68
2020/12/09 02:33:29;;;;;;;19.63;14.17;;;4.90;1.00;;;;;;5094202;28;20250;-67
2020/12/09 02:35:54;;;;;;;21.60;15.30;;;5.20;1.00;;;;;;5094127;28;20171;-67
2020/12/09 02:38:20;;;;;;;19.00;13.53;;;5.00;1.00;;;;;;5094606;28;20206;-67
2020/12/09 02:40:46;;;;;;;22.60;14.80;;;5.00;1.00;;;;;;5094288;28;20179;-68
2020/12/09 02:43:11;;;;;;;16.27;12.27;;;5.10;99.90;;;;;;5094054;28;20151;-67
2020/12/09 02:45:37;;;;;;;21.53;14.43;;;5.10;1.00;;;;;;5094197;28;20172;-67
2020/12/09 02:48:02;;;;;;;22.37;14.80;;;5.10;72.80;;;;;;5093936;28;20711;-67
2020/12/09 02:50:28;;;;;;;22.43;15.30;;;5.00;79.80;;;;;;5093816;28;20517;-67
2020/12/09 02:52:53;;;;;;;20.67;13.90;;;5.20;99.90;;;;;;5093813;28;20172;-67
2020/12/09 02:55:19;;;;;;;21.03;14.47;;;5.00;99.90;;;;;;5093745;28;20198;-67
2020/12/09 02:57:46;;;;;;;21.67;15.20;;;5.00;99.90;;;;;;5093991;28;20212;-67
2020/12/09 03:00:12;;;;;;;20.77;13.52;;;4.90;99.90;;;;;;5094009;28;20509;-67
2020/12/09 03:02:38;;;;;;;25.80;15.70;;;4.90;1.00;;;;;;5093726;28;20193;-68
2020/12/09 03:05:03;;;;;;;28.43;16.97;;;4.90;1.00;;;;;;5094087;28;20171;-68
2020/12/09 03:07:29;;;;;;;26.70;16.07;;;5.00;99.90;;;;;;5093610;28;20535;-68
2020/12/09 03:09:54;;;;;;;32.07;19.73;;;4.90;1.00;;;;;;5093557;28;20167;-70
2020/12/09 03:12:20;;;;;;;32.30;18.30;;;5.10;1.00;;;;;;5093348;28;20257;-67
2020/12/09 03:14:45;;;;;;;32.63;18.60;;;4.90;1.00;;;;;;5093676;28;20175;-67
2020/12/09 03:17:11;;;;;;;41.77;20.07;;;4.90;99.90;;;;;;5093554;28;20667;-67
2020/12/09 03:19:36;;;;;;;29.20;19.03;;;5.10;99.90;;;;;;5093370;28;20535;-67
2020/12/09 03:22:02;;;;;;;32.93;21.10;;;5.00;1.00;;;;;;5093475;28;20195;-67
2020/12/09 03:24:27;;;;;;;32.50;21.30;;;5.00;1.00;;;;;;5093567;28;20262;-67
2020/12/09 03:26:53;;;;;;;34.60;20.23;;;5.00;99.90;;;;;;5093508;28;20168;-67
2020/12/09 03:29:18;;;;;;;31.20;20.33;;;5.30;1.00;;;;;;5093197;28;20175;-67
2020/12/09 03:31:45;;;;;;;33.90;20.07;;;5.20;99.90;;;;;;5093103;28;20183;-69
2020/12/09 03:34:10;;;;;;;33.28;19.48;;;4.80;1.00;;;;;;5093192;28;20190;-67
2020/12/09 03:36:36;;;;;;;34.20;18.80;;;4.80;1.00;;;;;;5093416;28;20167;-67
2020/12/09 03:39:02;;;;;;;30.93;19.97;;;4.80;1.00;;;;;;5093266;28;20280;-67
2020/12/09 03:41:27;;;;;;;32.03;19.65;;;5.00;1.00;;;;;;5093055;28;20733;-67
2020/12/09 03:43:53;;;;;;;28.87;20.20;;;4.70;1.00;;;;;;5093358;28;20198;-67
2020/12/09 03:46:18;;;;;;;33.30;20.63;;;4.60;1.00;;;;;;5093030;28;20216;-67
2020/12/09 03:48:44;;;;;;;35.17;19.33;;;4.60;1.00;;;;;;5093257;28;20183;-67
2020/12/09 03:51:10;;;;;;;32.27;20.37;;;4.80;99.90;;;;;;5092987;28;20252;-67
2020/12/09 03:53:35;;;;;;;25.20;18.23;;;4.90;1.00;;;;;;5092931;28;20186;-67
2020/12/09 03:56:01;;;;;;;37.67;22.23;;;4.70;1.00;;;;;;5093214;28;20179;-67
2020/12/09 03:58:26;;;;;;;33.97;20.70;;;4.60;1.00;;;;;;5093050;28;20248;-69
2020/12/09 04:00:52;;;;;;;35.13;19.07;;;4.30;1.00;;;;;;5092892;28;20183;-67
2020/12/09 04:03:18;;;;;;;31.27;20.23;;;4.30;99.90;;;;;;5093673;28;20175;-67
2020/12/09 04:05:43;;;;;;;34.60;22.63;;;4.50;99.90;;;;;;5096945;28;20206;-67
2020/12/09 04:08:09;;;;;;;37.80;21.37;;;4.50;99.90;;;;;;5096933;28;20172;-67
2020/12/09 04:10:35;;;;;;;39.43;21.40;;;4.40;99.90;;;;;;5097039;28;20186;-69
2020/12/09 04:13:00;;;;;;;29.40;18.90;;;4.40;99.90;;;;;;5097618;28;20401;-67
2020/12/09 04:15:26;;;;;;;31.80;20.03;;;4.50;36.80;;;;;;5096798;28;20542;-67
2020/12/09 04:17:52;;;;;;;32.58;20.73;;;4.30;99.90;;;;;;5096660;28;20207;-67
2020/12/09 04:20:17;;;;;;;32.30;20.20;;;4.60;1.00;;;;;;5096740;28;20670;-67
2020/12/09 04:22:43;;;;;;;30.90;21.33;;;5.00;97.30;;;;;;5096961;28;20183;-67
2020/12/09 04:25:08;;;;;;;32.40;19.60;;;4.70;1.00;;;;;;5096714;28;20170;-69
2020/12/09 04:27:34;;;;;;;29.27;20.47;;;4.60;99.90;;;;;;5096709;28;20171;-69
2020/12/09 04:30:00;;;;;;;33.13;21.37;;;4.30;99.90;;;;;;5096672;28;20651;-69
2020/12/09 04:32:25;;;;;;;35.27;20.17;;;4.40;99.90;;;;;;5096529;28;20675;-69
2020/12/09 04:34:55;;;;;;;33.27;20.20;;;4.30;1.00;;;;;;5096764;28;20176;-67
2020/12/09 04:37:21;;;;;;;34.05;22.40;;;4.30;1.00;;;;;;5096594;28;20199;-67
2020/12/09 04:39:46;;;;;;;33.70;21.87;;;4.20;1.00;;;;;;5096471;28;20174;-69
2020/12/09 04:42:19;;;;;;;33.80;20.77;;;4.20;1.00;;;;;;5096623;28;20429;-69
2020/12/09 04:44:46;;;;;;;30.63;19.98;;;4.10;99.90;;;;;;5096339;28;20207;-69
2020/12/09 04:47:26;;;;;;;35.35;21.00;;;4.20;99.90;;;;;;5096502;28;20634;-69
2020/12/09 04:50:08;;;;;;;30.27;19.88;;;4.30;19.10;;;;;;5096563;28;20163;-67
2020/12/09 04:52:45;;;;;;;34.70;22.10;;;4.30;1.00;;;;;;5096073;28;20297;-67
2020/12/09 04:55:15;;;;;;;41.30;21.40;;;4.20;1.00;;;;;;5096365;28;20191;-67
2020/12/09 04:58:02;;;;;;;33.92;20.90;;;4.40;1.00;;;;;;5095964;28;20185;-67
2020/12/09 05:00:29;;;;;;;31.05;21.45;;;4.60;99.90;;;;;;5096182;28;20489;-67
2020/12/09 05:03:12;;;;;;;40.38;24.23;;;4.70;99.90;;;;;;5095923;28;20656;-67
2020/12/09 05:05:38;;;;;;;35.45;24.05;;;4.30;99.90;;;;;;5096286;28;20152;-67
2020/12/09 05:08:11;;;;;;;40.27;23.17;;;4.50;71.40;;;;;;5095865;28;20600;-67
2020/12/09 05:10:45;;;;;;;37.33;22.45;;;4.90;99.90;;;;;;5095620;28;20564;-67
2020/12/09 05:13:18;;;;;;;37.47;24.17;;;5.10;1.00;;;;;;5097190;28;20167;-67
2020/12/09 05:15:44;;;;;;;40.22;22.35;;;4.50;1.00;;;;;;5095596;28;20156;-67
2020/12/09 05:18:10;;;;;;;36.80;23.37;;;4.40;99.90;;;;;;5095777;28;20230;-67
2020/12/09 05:20:40;;;;;;;39.30;25.50;;;4.30;1.00;;;;;;5095732;28;20530;-67
2020/12/09 05:23:09;;;;;;;36.40;22.95;;;4.30;1.00;;;;;;5096068;28;20365;-67
2020/12/09 05:25:37;;;;;;;47.88;24.17;;;4.30;99.90;;;;;;5095769;28;20182;-67
2020/12/09 05:28:04;;;;;;;44.80;25.48;;;4.10;1.00;;;;;;5095729;28;20171;-69
2020/12/09 05:30:56;;;;;;;42.08;24.45;;;4.10;1.00;;;;;;5097593;28;20175;-68
2020/12/09 05:33:30;;;;;;;41.22;24.17;;;4.30;1.00;;;;;;5095453;28;20559;-67
2020/12/09 05:35:59;;;;;;;44.28;26.15;;;4.40;1.00;;;;;;5095666;28;20182;-68
2020/12/09 05:38:24;;;;;;;42.58;24.42;;;4.80;99.90;;;;;;5095452;28;20195;-68
2020/12/09 05:40:50;;;;;;;45.80;27.50;;;4.60;1.00;;;;;;5095707;28;20578;-68
2020/12/09 05:43:17;;;;;;;41.40;25.53;;;4.40;50.30;;;;;;5095185;28;20195;-68
2020/12/09 05:45:43;;;;;;;49.22;26.77;;;4.60;99.90;;;;;;5111614;28;20410;-68
2020/12/09 05:48:25;;;;;;;44.95;26.70;;;4.80;37.00;;;;;;5095317;28;20175;-68
2020/12/09 05:50:57;;;;;;;43.28;26.25;;;4.70;1.00;;;;;;5095616;28;20278;-68
2020/12/09 05:53:33;;;;;;;43.83;25.02;;;4.60;1.00;;;;;;5095443;28;20582;-68
2020/12/09 05:56:09;;;;;;;37.75;24.95;;;4.50;1.00;;;;;;5095353;28;20577;-68
2020/12/09 05:58:34;;;;;;;46.88;27.40;;;4.70;1.00;;;;;;5095091;28;20222;-68
2020/12/09 06:01:19;;;;;;;48.27;29.13;;;4.30;29.40;;;;;;5094704;28;20219;-68
2020/12/09 06:03:52;;;;;;;54.42;30.38;;;4.20;99.90;;;;;;5095147;28;20160;-68
2020/12/09 06:06:26;;;;;;;51.30;28.98;;;4.20;99.90;;;;;;5094860;28;20163;-67
2020/12/09 06:08:53;;;;;;;40.25;27.08;;;4.40;1.00;;;;;;5095421;28;20244;-68
2020/12/09 06:11:21;;;;;;;50.45;28.52;;;4.50;99.90;;;;;;5094937;28;20215;-68
2020/12/09 06:13:47;;;;;;;46.28;27.02;;;4.50;99.90;;;;;;5094832;28;20644;-68
2020/12/09 06:16:13;;;;;;;46.65;27.65;;;4.50;99.90;;;;;;5094652;28;20566;-69
2020/12/09 06:18:43;;;;;;;49.70;29.03;;;4.40;53.50;;;;;;5094609;28;20266;-68
2020/12/09 06:21:08;;;;;;;49.88;27.38;;;4.50;99.90;;;;;;5094620;28;20429;-68
2020/12/09 06:23:35;;;;;;;50.73;29.37;;;4.80;1.00;;;;;;5094213;28;20576;-67
2020/12/09 06:26:02;;;;;;;50.45;28.52;;;5.00;1.00;;;;;;5094027;28;20643;-68
2020/12/09 06:28:31;;;;;;;57.53;29.45;;;5.00;1.00;;;;;;5094109;28;20178;-68
2020/12/09 06:30:58;;;;;;;44.00;27.60;;;5.00;99.90;;;;;;5093945;28;20671;-68
2020/12/09 06:33:36;;;;;;;45.28;24.30;;;5.00;99.90;;;;;;5093887;28;20203;-69
2020/12/09 06:36:25;;;;;;;60.08;28.80;;;5.20;99.90;;;;;;5093913;28;20258;-68
2020/12/09 06:39:14;;;;;;;46.00;27.75;;;5.30;99.90;;;;;;5093884;28;20189;-68
2020/12/09 06:42:01;;;;;;;48.75;28.70;;;6.60;99.90;;;;;;5094089;28;20493;-68
2020/12/09 06:44:30;;;;;;;43.35;26.30;;;5.30;99.90;;;;;;5093523;28;20229;-67
2020/12/09 06:46:57;;;;;;;46.33;26.85;;;6.40;99.90;;;;;;5093738;28;20189;-68
2020/12/09 06:49:29;;;;;;;47.35;28.63;;;5.50;99.90;;;;;;5093653;28;20178;-66
2020/12/09 06:52:11;;;;;;;49.05;30.65;;;5.00;99.90;;;;;;5093460;28;20191;-67
2020/12/09 06:54:40;;;;;;;46.28;26.13;;;4.60;99.90;;;;;;5093130;28;20155;-68
2020/12/09 06:57:12;;;;;;;49.35;27.95;;;4.70;1.00;;;;;;5093205;28;20209;-67
2020/12/09 06:59:38;;;;;;;47.40;26.73;;;4.90;1.00;;;;;;5093142;28;20164;-67
2020/12/09 07:02:05;;;;;;;45.93;28.13;;;5.10;99.90;;;;;;5093334;28;20225;-67
2020/12/09 07:04:52;;;;;;;55.03;29.38;;;4.80;99.90;;;;;;5092931;28;20160;-66
2020/12/09 07:07:28;;;;;;;54.67;28.75;;;4.80;1.00;;;;;;5093517;28;20186;-67
2020/12/09 07:09:54;;;;;;;47.38;28.60;;;4.90;99.90;;;;;;5093557;28;20221;-67
2020/12/09 07:12:20;;;;;;;45.90;26.93;;;5.30;99.90;;;;;;5093232;28;20731;-68
2020/12/09 07:14:47;;;;;;;42.95;27.10;;;4.70;99.90;;;;;;5093238;28;20296;-67
2020/12/09 07:17:14;;;;;;;47.05;25.75;;;4.70;1.00;;;;;;5093133;28;20206;-67
2020/12/09 07:19:40;;;;;;;47.10;28.23;;;4.50;99.90;;;;;;5093233;28;20167;-67
2020/12/09 07:22:05;;;;;;;46.27;26.67;;;4.50;1.00;;;;;;5092802;28;20247;-67
2020/12/09 07:24:31;;;;;;;43.33;27.20;;;4.70;1.00;;;;;;5092853;28;20171;-68
2020/12/09 07:26:56;;;;;;;49.70;25.27;;;4.90;99.90;;;;;;5092759;28;20235;-67
2020/12/09 07:29:22;;;;;;;43.30;26.50;;;4.60;99.90;;;;;;5093127;28;20167;-68
2020/12/09 07:31:48;;;;;;;51.03;27.57;;;4.50;99.90;;;;;;5093138;28;20183;-67
2020/12/09 07:34:13;;;;;;;43.10;25.73;;;4.60;1.00;;;;;;5092845;28;20258;-68
2020/12/09 07:36:50;;;;;;;72.83;29.07;;;4.80;99.90;;;;;;5092741;28;20397;-66
2020/12/09 07:39:27;;;;;;;47.75;28.52;;;4.50;99.90;;;;;;5091757;28;20179;-66
2020/12/09 07:41:56;;;;;;;48.05;27.67;;;4.40;1.00;;;;;;5092859;28;20227;-68
2020/12/09 07:44:22;;;;;;;61.90;29.65;;;4.20;1.00;;;;;;5093280;28;20542;-67
2020/12/09 07:46:58;;;;;;;52.57;30.90;;;4.20;1.00;;;;;;5092788;28;20242;-66
2020/12/09 07:49:25;;;;;;;47.20;28.70;;;4.50;1.00;;;;;;5092769;28;20627;-67
2020/12/09 07:51:52;;;;;;;50.65;28.27;;;4.80;99.90;;;;;;5092584;28;20209;-68
2020/12/09 07:54:19;;;;;;;52.03;27.70;;;4.70;99.90;;;;;;5092666;28;20525;-66
2020/12/09 07:56:45;;;;;;;50.95;29.00;;;4.80;1.00;;;;;;5092706;28;20175;-68
2020/12/09 07:59:12;;;;;;;70.30;31.07;;;4.60;99.90;;;;;;5092609;28;20251;-68
2020/12/09 08:01:38;;;;;;;55.88;29.52;;;4.50;1.00;;;;;;5092455;28;20429;-68
2020/12/09 08:04:04;;;;;;;50.17;30.30;;;4.80;1.00;;;;;;5092169;28;20208;-68
2020/12/09 08:06:30;;;;;;;51.33;27.73;;;4.50;99.90;;;;;;5091980;28;20402;-68
2020/12/09 08:08:56;;;;;;;55.17;29.27;;;4.50;1.00;;;;;;5107965;28;20764;-68
2020/12/09 08:11:21;;;;;;;52.13;26.23;;;4.50;1.00;;;;;;5092669;28;20211;-68
2020/12/09 08:13:47;;;;;;;53.70;27.80;;;4.70;1.00;;;;;;5092897;28;20628;-68
2020/12/09 08:16:13;;;;;;;134.53;30.47;;;4.70;99.90;;;;;;5092506;28;20485;-68
2020/12/09 08:18:41;;;;;;;48.83;27.10;;;4.70;99.90;;;;;;5092448;28;20191;-68
2020/12/09 08:21:08;;;;;;;52.75;26.88;;;4.90;99.90;;;;;;5092547;28;20214;-68
2020/12/09 08:23:50;;;;;;;49.65;27.80;;;4.60;99.90;;;;;;5092788;28;20188;-68
2020/12/09 08:26:36;;;;;;;43.75;26.00;;;4.80;99.90;;;;;;5092191;28;20158;-67
2020/12/09 08:29:01;;;;;;;46.85;27.80;;;4.70;99.90;;;;;;5092249;28;20163;-68
2020/12/09 08:31:27;;;;;;;47.43;28.80;;;4.80;99.90;;;;;;5092369;28;20187;-68
2020/12/09 08:33:53;;;;;;;47.03;28.13;;;4.50;99.90;;;;;;5092596;28;20470;-67
2020/12/09 08:36:20;;;;;;;58.00;28.10;;;4.80;99.90;;;;;;5092695;28;20458;-68
2020/12/09 08:38:59;;;;;;;48.10;27.02;;;4.80;99.90;;;;;;5092088;28;20199;-66
2020/12/09 08:41:30;;;;;;;46.72;28.98;;;4.60;99.90;;;;;;5092535;28;20245;-66
2020/12/09 08:44:01;;;;;;;55.25;25.65;;;4.90;99.90;;;;;;5092105;28;20574;-67
2020/12/09 08:46:28;;;;;;;60.95;28.63;;;5.10;99.90;;;;;;5092068;28;20524;-68
2020/12/09 08:48:56;;;;;;;56.30;27.52;;;5.10;99.90;;;;;;5092109;28;20163;-66
2020/12/09 08:51:33;;;;;;;48.30;26.65;;;5.20;99.90;;;;;;5095775;28;20203;-68
2020/12/09 08:54:00;;;;;;;68.50;28.42;;;4.60;99.90;;;;;;5095693;28;20166;-67
2020/12/09 08:56:29;;;;;;;58.47;26.38;;;4.50;99.90;;;;;;5095494;28;20620;-65
2020/12/09 08:58:55;;;;;;;45.35;25.10;;;4.60;99.90;;;;;;5095074;28;20689;-66
2020/12/09 09:01:21;;;;;;;46.77;26.87;;;4.50;99.90;;;;;;5095746;28;20187;-66
2020/12/09 09:03:49;;;;;;;43.50;26.30;;;4.70;99.90;;;;;;5095329;28;20913;-63
2020/12/09 09:06:15;;;;;;;30.00;17.65;;;4.90;99.90;;;;;;5095507;28;20170;-67
2020/12/09 09:08:41;;;;;;;32.93;19.57;;;7.50;99.90;;;;;;5095468;28;20639;-66
2020/12/09 09:11:06;;;;;;;46.03;27.00;;;9.00;99.90;;;;;;5095021;28;20225;-62
2020/12/09 09:13:32;;;;;;;42.00;26.33;;;7.00;1.00;;;;;;5095026;28;20171;-68
2020/12/09 09:16:04;;;;;;;45.33;26.73;;;6.20;1.00;;;;;;5096596;28;20220;-67
2020/12/09 09:18:29;;;;;;;63.20;29.65;;;5.80;14.20;;;;;;5095517;28;20215;-65
2020/12/09 09:20:55;;;;;;;40.70;26.10;;;5.70;19.20;;;;;;5094113;28;20211;-65
2020/12/09 09:23:20;;;;;;;47.17;27.03;;;5.40;3.20;;;;;;5094030;28;20662;-68
2020/12/09 09:25:46;;;;;;;40.47;26.30;;;5.30;12.20;;;;;;5094238;28;20183;-67
2020/12/09 09:28:11;;;;;;;57.60;27.63;;;5.00;34.60;;;;;;5093801;28;20179;-67
2020/12/09 09:30:37;;;;;;;44.90;27.67;;;4.80;64.40;;;;;;5093824;28;20186;-67
2020/12/09 09:33:03;;;;;;;51.83;28.60;;;4.70;41.80;;;;;;5093865;28;20242;-66
2020/12/09 09:35:28;;;;;;;57.63;29.23;;;4.80;99.90;;;;;;5093971;28;20201;-67
2020/12/09 09:37:54;;;;;;;45.53;28.70;;;4.80;99.90;;;;;;5094331;28;20630;-67
2020/12/09 09:40:19;;;;;;;68.80;28.60;;;5.20;52.20;;;;;;5093675;28;20168;-67
2020/12/09 09:42:45;;;;;;;49.60;28.33;;;4.90;38.00;;;;;;5093245;28;20183;-68
2020/12/09 09:45:11;;;;;;;51.23;26.40;;;4.80;66.00;;;;;;5094514;28;20170;-66
2020/12/09 09:47:37;;;;;;;49.85;26.83;;;4.80;99.90;;;;;;5094218;28;20171;-65
2020/12/09 09:50:05;;;;;;;49.88;28.50;;;5.30;94.90;;;;;;5093291;28;20293;-65
2020/12/09 09:52:30;;;;;;;61.97;28.80;;;5.50;14.70;;;;;;5093574;28;20198;-67
2020/12/09 09:54:56;;;;;;;57.80;28.33;;;5.80;13.40;;;;;;5093907;28;20517;-68
2020/12/09 09:57:21;;;;;;;47.40;27.53;;;5.90;1.00;;;;;;5093303;28;20199;-65
2020/12/09 09:59:47;;;;;;;61.33;29.37;;;5.40;1.00;;;;;;5093427;28;20167;-66
2020/12/09 10:02:12;;;;;;;95.10;30.83;;;5.40;20.00;;;;;;5091995;28;20198;-66
2020/12/09 10:04:38;;;;;;;78.90;27.47;;;5.60;13.30;;;;;;5093183;28;20168;-66
2020/12/09 10:07:03;;;;;;;67.43;26.03;;;5.80;1.00;;;;;;5092576;28;20694;-65
2020/12/09 10:09:29;;;;;;;78.60;26.57;;;6.20;1.00;;;;;;5093231;28;20246;-65
2020/12/09 10:11:54;;;;;;;59.20;26.47;;;6.30;1.00;;;;;;5072502;28;602965;-67
2020/12/09 10:14:20;;;;;;;52.57;27.77;;;5.80;1.00;;;;;;5094383;28;20175;-66
2020/12/09 10:16:46;;;;;;;43.17;27.00;;;5.40;1.00;;;;;;5094066;28;20175;-65
2020/12/09 10:19:12;;;;;;;49.47;27.08;;;5.20;5.10;;;;;;5093965;28;20683;-64
2020/12/09 10:21:39;;;;;;;42.70;26.87;;;5.60;6.00;;;;;;5093521;28;20191;-65
2020/12/09 10:24:06;;;;;;;49.22;28.00;;;5.50;1.00;;;;;;5093563;28;20426;-66
2020/12/09 10:26:37;;;;;;;48.47;28.95;;;5.90;1.00;;;;;;5094260;28;20174;-65
2020/12/09 10:29:07;;;;;;;57.33;31.70;;;6.10;1.00;;;;;;5094296;28;20178;-66
2020/12/09 10:31:39;;;;;;;74.25;32.65;;;5.90;1.00;;;;;;5094116;28;20195;-64
2020/12/09 10:34:07;;;;;;;48.22;30.13;;;6.10;1.00;;;;;;5093897;28;20178;-66
2020/12/09 10:36:33;;;;;;;47.92;29.23;;;6.10;1.00;;;;;;5094207;28;20283;-66
2020/12/09 10:38:59;;;;;;;53.97;29.55;;;6.30;1.00;;;;;;5093553;28;20675;-65
2020/12/09 10:41:25;;;;;;;51.63;29.90;;;6.00;1.00;;;;;;5109097;28;20195;-65
2020/12/09 10:43:52;;;;;;;47.37;29.47;;;6.10;1.00;;;;;;5093512;28;20176;-64
2020/12/09 10:46:28;;;;;;;60.65;28.88;;;6.10;1.00;;;;;;5093152;28;20214;-67
2020/12/09 10:48:54;;;;;;;45.40;27.25;;;6.10;1.00;;;;;;5093412;28;20189;-65
2020/12/09 10:51:19;;;;;;;98.47;32.80;;;5.80;1.00;;;;;;5093662;28;20191;-68
2020/12/09 10:53:45;;;;;;;55.00;29.97;;;6.10;1.00;;;;;;5093460;28;20282;-64
2020/12/09 10:56:11;;;;;;;73.90;30.23;;;5.90;1.00;;;;;;5093980;28;20246;-65
2020/12/09 10:58:37;;;;;;;67.87;30.10;;;6.40;1.00;;;;;;5093126;28;20536;-68
2020/12/09 11:01:02;;;;;;;54.47;28.50;;;6.30;1.00;;;;;;5093835;28;20187;-66
2020/12/09 11:03:28;;;;;;;83.43;31.97;;;6.40;1.00;;;;;;5093632;28;20167;-68
2020/12/09 11:05:53;;;;;;;56.70;29.07;;;6.50;1.00;;;;;;5093224;28;20164;-67
2020/12/09 11:08:19;;;;;;;52.87;27.60;;;6.90;1.00;;;;;;5093041;28;20561;-68
2020/12/09 11:10:45;;;;;;;45.80;27.77;;;6.80;1.00;;;;;;5093031;28;20613;-68
2020/12/09 11:13:10;;;;;;;49.93;30.03;;;6.70;1.00;;;;;;5094721;28;20159;-68
2020/12/09 11:15:36;;;;;;;42.43;27.00;;;6.40;1.00;;;;;;5092979;28;20244;-68
2020/12/09 11:18:02;;;;;;;48.50;26.73;;;6.50;1.00;;;;;;5093329;28;20234;-68
2020/12/09 11:20:27;;;;;;;59.50;28.63;;;6.10;1.00;;;;;;5092839;28;20189;-69
2020/12/09 11:22:54;;;;;;;43.23;26.80;;;6.10;1.00;;;;;;5093935;28;20953;-69
2020/12/09 11:25:22;;;;;;;53.05;29.98;;;6.10;1.00;;;;;;5094169;28;20172;-68
2020/12/09 11:27:47;;;;;;;46.45;29.70;;;5.90;1.00;;;;;;5093951;28;20186;-71
2020/12/09 11:30:13;;;;;;;66.33;29.90;;;6.10;1.00;;;;;;5093814;28;20648;-67
2020/12/09 11:32:38;;;;;;;52.67;29.90;;;6.20;1.00;;;;;;5093907;28;20199;-70
2020/12/09 11:35:04;;;;;;;51.03;30.80;;;6.30;1.00;;;;;;5093008;28;20214;-70
2020/12/09 11:37:33;;;;;;;70.17;30.10;;;6.30;1.00;;;;;;5092910;28;20528;-70
2020/12/09 11:39:59;;;;;;;54.70;28.30;;;6.10;1.00;;;;;;5092525;28;20230;-70
2020/12/09 11:42:25;;;;;;;42.25;27.45;;;6.10;1.00;;;;;;5092449;28;20183;-67
2020/12/09 11:44:50;;;;;;;47.07;26.50;;;5.90;1.00;;;;;;5092807;28;20164;-70
2020/12/09 11:47:16;;;;;;;59.93;28.27;;;6.00;1.00;;;;;;5092421;28;20889;-67
2020/12/09 11:49:41;;;;;;;47.20;28.70;;;6.20;1.00;;;;;;5092417;28;20495;-68
2020/12/09 11:52:07;;;;;;;48.50;24.33;;;6.40;1.00;;;;;;5092978;28;20285;-68
2020/12/09 11:54:33;;;;;;;48.77;23.50;;;6.20;1.00;;;;;;5093338;28;20220;-68
2020/12/09 11:57:01;;;;;;;67.43;25.47;;;6.30;1.00;;;;;;5092483;28;20531;-69
2020/12/09 11:59:27;;;;;;;44.85;25.63;;;6.70;1.00;;;;;;5092531;28;20643;-68
2020/12/09 12:01:52;;;;;;;31.90;22.07;;;6.60;1.00;;;;;;5092545;28;20267;-67
2020/12/09 12:04:18;;;;;;;39.27;23.47;;;6.90;1.00;;;;;;5092667;28;20197;-69
2020/12/09 12:06:45;;;;;;;38.70;24.43;;;7.10;1.00;;;;;;5093345;28;20172;-68
2020/12/09 12:09:10;;;;;;;51.53;26.35;;;7.00;1.00;;;;;;5092939;28;20403;-68
2020/12/09 12:11:36;;;;;;;39.70;25.67;;;6.70;1.00;;;;;;5092563;28;20202;-67
2020/12/09 12:14:02;;;;;;;41.40;26.07;;;7.10;1.00;;;;;;5092940;28;20172;-67
2020/12/09 12:16:27;;;;;;;55.93;27.00;;;7.00;1.00;;;;;;5092250;28;20675;-68
2020/12/09 12:18:53;;;;;;;46.53;25.43;;;7.00;1.00;;;;;;5092106;28;20719;-68
2020/12/09 12:21:21;;;;;;;170.60;36.83;;;7.00;1.00;;;;;;5091579;28;20191;-67
2020/12/09 12:23:47;;;;;;;66.80;25.58;;;6.90;1.00;;;;;;5092046;28;20167;-67
2020/12/09 12:26:17;;;;;;;36.77;25.10;;;7.00;1.00;;;;;;5095286;28;20224;-69
2020/12/09 12:28:44;;;;;;;39.42;25.88;;;6.80;1.00;;;;;;5095291;28;20419;-66
2020/12/09 12:31:14;;;;;;;37.63;24.52;;;7.30;1.00;;;;;;5095774;28;20694;-68
2020/12/09 12:33:40;;;;;;;38.17;23.40;;;7.60;1.00;;;;;;5095715;28;20213;-68
2020/12/09 12:36:07;;;;;;;36.95;24.35;;;7.30;1.00;;;;;;5095611;28;20187;-70
2020/12/09 12:38:33;;;;;;;48.42;23.90;;;7.50;1.00;;;;;;5095366;28;20647;-67
2020/12/09 12:40:59;;;;;;;41.95;24.35;;;7.70;1.00;;;;;;5095846;28;20203;-68
2020/12/09 12:43:25;;;;;;;35.73;23.30;;;7.90;1.00;;;;;;5095638;28;20163;-67